Time;durP1;ratioP1;P1;durP2;ratioP2;P2;SDS_P1;SDS_P2;PMS_P1;PMS_P2;Temp;Humidity;BMP_temperature;BMP_pressure;BME280_temperature;BME280_humidity;BME280_pressure;Samples;Min_cycle;Max_cycle;Signal;HPM_P1;HPM_P2
2023/09/13 00:00:23;;;;;;;13.57;6.63;;;19.70;99.90;;;;;;5015173;28;20150;-69
2023/09/13 00:02:49;;;;;;;19.63;5.57;;;19.60;99.90;;;;;;5015153;28;20049;-69
2023/09/13 00:05:15;;;;;;;13.05;5.78;;;19.60;99.90;;;;;;5015422;28;20132;-69
2023/09/13 00:07:40;;;;;;;13.65;6.32;;;19.60;99.90;;;;;;5016722;28;20494;-69
2023/09/13 00:10:07;;;;;;;12.90;5.15;;;19.50;99.90;;;;;;5019037;28;20069;-69
2023/09/13 00:12:32;;;;;;;14.48;5.45;;;19.50;99.90;;;;;;5018896;28;20545;-69
2023/09/13 00:14:58;;;;;;;12.02;4.70;;;19.50;99.90;;;;;;5019239;28;20081;-69
2023/09/13 00:17:24;;;;;;;12.02;4.88;;;19.50;99.90;;;;;;5018929;28;20383;-69
2023/09/13 00:19:50;;;;;;;17.20;4.72;;;19.50;99.90;;;;;;5019083;28;20045;-68
2023/09/13 00:22:15;;;;;;;18.83;5.20;;;19.50;99.90;;;;;;5018752;28;20382;-68
2023/09/13 00:24:41;;;;;;;13.10;4.57;;;19.40;99.90;;;;;;5018771;28;20096;-68
2023/09/13 00:27:06;;;;;;;13.40;4.15;;;19.40;99.90;;;;;;5018633;28;20041;-68
2023/09/13 00:29:33;;;;;;;10.73;3.67;;;19.40;99.90;;;;;;5018700;28;20080;-68
2023/09/13 00:32:02;;;;;;;11.10;3.78;;;19.40;99.90;;;;;;5018702;28;20111;-68
2023/09/13 00:34:29;;;;;;;15.05;3.60;;;19.40;99.90;;;;;;5018559;28;20041;-68
2023/09/13 00:36:56;;;;;;;9.75;3.17;;;19.40;99.90;;;;;;5018906;28;20132;-68
2023/09/13 00:39:22;;;;;;;15.02;3.65;;;19.40;99.90;;;;;;5018427;28;20148;-68
2023/09/13 00:41:47;;;;;;;13.07;4.03;;;19.30;99.90;;;;;;5018375;28;20037;-68
2023/09/13 00:44:13;;;;;;;17.05;5.10;;;19.30;99.90;;;;;;5018450;28;20045;-68
2023/09/13 00:46:39;;;;;;;14.60;4.43;;;19.30;99.90;;;;;;5001950;28;20042;-68
2023/09/13 00:49:06;;;;;;;12.40;3.92;;;19.30;99.90;;;;;;5018268;28;20379;-68
2023/09/13 00:51:31;;;;;;;10.98;4.05;;;19.30;99.90;;;;;;5018134;28;20494;-68
2023/09/13 00:53:58;;;;;;;12.43;4.15;;;19.30;99.90;;;;;;5018423;28;20103;-68
2023/09/13 00:56:25;;;;;;;14.65;4.10;;;19.20;99.90;;;;;;5018199;28;20080;-68
2023/09/13 00:58:51;;;;;;;10.25;3.55;;;19.20;99.90;;;;;;5018125;28;20132;-68
2023/09/13 01:01:17;;;;;;;11.15;3.92;;;19.20;99.90;;;;;;5018251;28;20099;-68
2023/09/13 01:03:43;;;;;;;8.70;3.35;;;19.20;99.90;;;;;;5018033;28;20519;-68
2023/09/13 01:06:10;;;;;;;10.25;3.40;;;19.10;99.90;;;;;;5017930;28;20080;-68
2023/09/13 01:08:41;;;;;;;12.48;3.45;;;19.10;99.90;;;;;;5018205;28;20077;-68
2023/09/13 01:11:08;;;;;;;13.27;3.30;;;19.10;99.90;;;;;;5018171;28;20398;-68
2023/09/13 01:13:34;;;;;;;13.43;3.22;;;19.00;99.90;;;;;;5001573;28;20486;-68
2023/09/13 01:16:21;;;;;;;11.80;3.10;;;19.10;99.90;;;;;;5001491;28;20041;-68
2023/09/13 01:18:49;;;;;;;10.63;2.92;;;19.10;99.90;;;;;;5000512;28;20053;-69
2023/09/13 01:21:51;;;;;;;8.68;2.80;;;19.00;99.90;;;;;;5017643;28;20041;-68
2023/09/13 01:24:17;;;;;;;11.93;3.78;;;19.00;99.90;;;;;;5016770;28;20565;-68
2023/09/13 01:27:10;;;;;;;9.65;3.40;;;18.90;99.90;;;;;;5017727;28;20133;-68
2023/09/13 01:29:36;;;;;;;12.10;3.30;;;18.90;99.90;;;;;;5017581;28;20050;-68
2023/09/13 01:32:03;;;;;;;13.35;3.47;;;18.80;99.90;;;;;;5001036;28;20083;-68
2023/09/13 01:34:29;;;;;;;13.25;3.85;;;18.80;99.90;;;;;;5017470;28;20401;-68
2023/09/13 01:36:56;;;;;;;9.50;3.30;;;18.70;99.90;;;;;;5017459;28;20497;-68
2023/09/13 01:39:22;;;;;;;11.00;2.97;;;18.70;99.90;;;;;;5017380;28;20046;-68
2023/09/13 01:41:56;;;;;;;10.95;2.78;;;18.70;99.90;;;;;;5017305;28;20551;-68
2023/09/13 01:44:22;;;;;;;12.85;2.70;;;18.70;99.90;;;;;;5017366;28;20046;-68
2023/09/13 01:46:50;;;;;;;10.50;2.42;;;18.60;99.90;;;;;;5017201;28;20045;-68
2023/09/13 01:49:18;;;;;;;9.90;2.58;;;18.60;99.90;;;;;;5017408;28;20502;-68
2023/09/13 01:51:45;;;;;;;8.75;2.20;;;18.50;99.90;;;;;;5017095;28;20076;-68
2023/09/13 01:54:10;;;;;;;9.43;2.53;;;18.40;99.90;;;;;;5017079;28;20041;-68
2023/09/13 01:56:36;;;;;;;7.82;2.72;;;18.50;99.90;;;;;;5017072;28;20086;-68
2023/09/13 01:59:02;;;;;;;9.75;2.13;;;18.40;99.90;;;;;;5017010;28;20060;-68
2023/09/13 02:01:27;;;;;;;8.27;2.10;;;18.30;99.90;;;;;;5016899;28;20037;-68
2023/09/13 02:03:53;;;;;;;9.05;2.22;;;18.30;99.90;;;;;;5017128;28;20088;-68
2023/09/13 02:06:18;;;;;;;12.55;2.58;;;18.30;99.90;;;;;;5016752;28;20409;-68
2023/09/13 02:08:45;;;;;;;13.57;2.45;;;18.20;99.90;;;;;;5016847;28;20045;-68
2023/09/13 02:11:10;;;;;;;10.55;2.38;;;18.30;99.90;;;;;;5016690;28;20446;-68
2023/09/13 02:13:36;;;;;;;11.18;2.30;;;18.30;99.90;;;;;;5016775;28;20091;-68
2023/09/13 02:16:02;;;;;;;10.48;2.40;;;18.20;99.90;;;;;;5016899;28;20049;-68
2023/09/13 02:18:28;;;;;;;12.05;2.15;;;18.30;99.90;;;;;;5016619;28;20522;-68
2023/09/13 02:20:54;;;;;;;13.10;2.28;;;18.20;99.90;;;;;;5016911;28;20046;-68
2023/09/13 02:23:20;;;;;;;10.07;2.05;;;18.20;99.90;;;;;;5016565;28;20037;-68
2023/09/13 02:25:46;;;;;;;8.27;2.35;;;18.20;99.90;;;;;;5016381;28;20074;-68
2023/09/13 02:28:13;;;;;;;7.35;1.80;;;18.20;99.90;;;;;;5034171;28;20045;-68
2023/09/13 02:30:39;;;;;;;7.63;2.30;;;18.20;99.90;;;;;;5016290;28;20059;-68
2023/09/13 02:33:05;;;;;;;8.10;1.80;;;18.20;99.90;;;;;;4999848;28;20034;-68
2023/09/13 02:35:32;;;;;;;8.98;2.17;;;18.20;99.90;;;;;;5016340;28;20041;-68
2023/09/13 02:37:58;;;;;;;6.80;2.25;;;18.10;99.90;;;;;;5016297;28;20050;-68
2023/09/13 02:40:24;;;;;;;6.00;1.67;;;18.10;99.90;;;;;;5016354;28;20049;-68
2023/09/13 02:42:50;;;;;;;11.07;2.83;;;18.10;99.90;;;;;;5016200;28;20053;-69
2023/09/13 02:45:16;;;;;;;11.93;2.22;;;18.10;99.90;;;;;;5016123;28;20053;-68
2023/09/13 02:47:43;;;;;;;7.15;2.33;;;18.10;99.90;;;;;;5016101;28;20051;-68
2023/09/13 02:50:09;;;;;;;8.95;2.17;;;18.10;99.90;;;;;;5016364;28;20064;-68
2023/09/13 02:52:35;;;;;;;9.35;1.70;;;18.10;99.90;;;;;;5015959;28;20095;-68
2023/09/13 02:55:05;;;;;;;8.68;2.10;;;18.10;99.90;;;;;;5015952;28;20033;-68
2023/09/13 02:57:31;;;;;;;10.48;2.22;;;18.10;99.90;;;;;;5015942;28;20387;-68
2023/09/13 02:59:57;;;;;;;8.35;2.25;;;18.00;99.90;;;;;;4999850;28;20045;-68
2023/09/13 03:02:22;;;;;;;8.25;2.10;;;18.00;99.90;;;;;;5016094;28;20056;-68
2023/09/13 03:04:52;;;;;;;9.45;2.05;;;18.00;99.90;;;;;;5015860;28;20045;-68
2023/09/13 03:07:18;;;;;;;7.45;1.95;;;18.00;99.90;;;;;;5015715;28;20092;-68
2023/09/13 03:09:45;;;;;;;10.60;1.92;;;18.00;99.90;;;;;;5015706;28;20481;-68
2023/09/13 03:12:11;;;;;;;9.88;1.60;;;17.90;99.90;;;;;;5015978;28;20037;-68
2023/09/13 03:14:37;;;;;;;10.82;2.53;;;18.00;99.90;;;;;;5016059;28;20049;-68
2023/09/13 03:17:03;;;;;;;8.38;2.08;;;17.90;99.90;;;;;;5015970;28;20057;-70
2023/09/13 03:19:30;;;;;;;11.23;1.85;;;17.90;99.90;;;;;;5015668;28;20498;-71
2023/09/13 03:21:55;;;;;;;9.90;2.08;;;18.00;99.90;;;;;;5015799;28;20099;-71
2023/09/13 03:24:21;;;;;;;8.32;1.98;;;17.90;99.90;;;;;;5015602;28;20408;-71
2023/09/13 03:26:47;;;;;;;9.85;2.05;;;17.90;99.90;;;;;;5015504;28;20048;-71
2023/09/13 03:29:12;;;;;;;6.82;2.17;;;18.00;99.90;;;;;;5015519;28;20034;-71
2023/09/13 03:31:38;;;;;;;11.05;2.20;;;17.90;99.90;;;;;;5015395;28;20041;-71
2023/09/13 03:34:04;;;;;;;8.57;2.15;;;17.90;99.90;;;;;;5015516;28;20069;-71
2023/09/13 03:36:30;;;;;;;11.80;2.55;;;17.90;99.90;;;;;;5015401;28;20033;-71
2023/09/13 03:38:55;;;;;;;8.70;2.15;;;17.80;99.90;;;;;;5015412;28;20045;-71
2023/09/13 03:41:22;;;;;;;14.02;2.50;;;17.80;99.90;;;;;;5033064;28;20033;-71
2023/09/13 03:43:49;;;;;;;7.15;2.15;;;17.80;99.90;;;;;;5015022;28;20045;-71
2023/09/13 03:46:15;;;;;;;9.15;2.67;;;17.90;99.90;;;;;;5033011;28;20429;-71
2023/09/13 03:48:40;;;;;;;9.27;2.30;;;17.80;99.90;;;;;;5015265;28;20498;-71
2023/09/13 03:51:07;;;;;;;9.50;2.58;;;17.80;99.90;;;;;;5015461;28;20099;-71
2023/09/13 03:53:33;;;;;;;12.35;2.58;;;17.80;99.90;;;;;;5015543;28;20091;-71
2023/09/13 03:55:59;;;;;;;12.00;2.20;;;17.90;99.90;;;;;;5032870;28;20486;-71
2023/09/13 03:58:25;;;;;;;8.15;1.92;;;17.80;99.90;;;;;;5015283;28;20029;-71
2023/09/13 04:00:52;;;;;;;7.97;2.38;;;17.80;99.90;;;;;;5015613;28;20087;-71
2023/09/13 04:03:18;;;;;;;12.50;2.80;;;17.80;99.90;;;;;;5015075;28;20044;-71
2023/09/13 04:05:44;;;;;;;8.77;2.38;;;17.80;99.90;;;;;;5015052;28;20037;-71
2023/09/13 04:08:10;;;;;;;7.75;2.05;;;17.80;99.90;;;;;;5015192;28;20041;-71
2023/09/13 04:10:36;;;;;;;11.52;2.60;;;17.80;99.90;;;;;;5015112;28;20041;-71
2023/09/13 04:13:01;;;;;;;10.55;2.50;;;17.80;99.90;;;;;;5015074;28;20081;-71
2023/09/13 04:15:27;;;;;;;11.13;2.50;;;17.80;99.90;;;;;;5015124;28;20069;-71
2023/09/13 04:17:52;;;;;;;10.80;2.42;;;17.80;99.90;;;;;;5015105;28;20096;-71
2023/09/13 04:20:19;;;;;;;10.80;2.92;;;17.80;99.90;;;;;;5015321;28;20037;-71
2023/09/13 04:22:45;;;;;;;10.27;2.42;;;17.80;99.90;;;;;;5014997;28;20056;-71
2023/09/13 04:25:11;;;;;;;7.43;1.90;;;17.80;99.90;;;;;;5014996;28;20053;-71
2023/09/13 04:27:37;;;;;;;14.55;2.58;;;17.80;99.90;;;;;;5014943;28;20087;-71
2023/09/13 04:30:03;;;;;;;11.90;2.30;;;17.80;99.90;;;;;;5015177;28;20037;-71
2023/09/13 04:32:28;;;;;;;9.65;2.35;;;17.80;99.90;;;;;;5014731;28;20390;-71
2023/09/13 04:34:55;;;;;;;8.45;2.90;;;17.70;99.90;;;;;;5014938;28;20120;-71
2023/09/13 04:37:20;;;;;;;9.13;2.33;;;17.70;99.90;;;;;;5015116;28;20110;-71
2023/09/13 04:39:47;;;;;;;9.73;2.22;;;17.70;99.90;;;;;;5014830;28;20502;-71
2023/09/13 04:42:14;;;;;;;9.68;2.20;;;17.70;99.90;;;;;;5014793;28;20038;-71
2023/09/13 04:44:39;;;;;;;13.13;2.78;;;17.70;99.90;;;;;;5014823;28;20046;-71
2023/09/13 04:47:05;;;;;;;9.85;2.60;;;17.70;99.90;;;;;;5014627;28;20052;-71
2023/09/13 04:49:30;;;;;;;12.07;2.50;;;17.70;99.90;;;;;;5014798;28;20033;-71
2023/09/13 04:51:57;;;;;;;13.57;2.45;;;17.60;99.90;;;;;;5014685;28;20042;-71
2023/09/13 04:54:23;;;;;;;11.18;2.28;;;17.60;99.90;;;;;;5015725;28;20038;-71
2023/09/13 04:56:50;;;;;;;9.93;2.35;;;17.50;99.90;;;;;;5018185;28;20509;-70
2023/09/13 04:59:15;;;;;;;14.48;2.90;;;17.50;99.90;;;;;;5018212;28;20045;-70
2023/09/13 05:01:41;;;;;;;9.13;1.80;;;17.40;99.90;;;;;;5017993;28;20053;-70
2023/09/13 05:04:07;;;;;;;12.60;2.60;;;17.40;99.90;;;;;;5018086;28;20077;-70
2023/09/13 05:06:32;;;;;;;11.00;2.30;;;17.40;99.90;;;;;;5017921;28;20124;-70
2023/09/13 05:08:58;;;;;;;8.35;1.70;;;17.40;99.90;;;;;;5018236;28;20126;-70
2023/09/13 05:11:24;;;;;;;8.40;2.35;;;17.30;99.90;;;;;;5018076;28;20409;-71
2023/09/13 05:13:50;;;;;;;12.15;1.70;;;17.30;99.90;;;;;;5001837;28;20037;-71
2023/09/13 05:16:19;;;;;;;9.05;1.77;;;17.30;99.90;;;;;;5017851;28;20041;-71
2023/09/13 05:18:48;;;;;;;8.30;1.90;;;17.20;99.90;;;;;;5017799;28;20042;-71
2023/09/13 05:21:14;;;;;;;8.35;1.55;;;17.10;99.90;;;;;;5017684;28;20417;-71
2023/09/13 05:23:40;;;;;;;8.80;1.80;;;17.20;99.90;;;;;;5017755;28;20049;-71
2023/09/13 05:26:06;;;;;;;8.13;1.77;;;17.10;99.90;;;;;;5017568;28;20110;-71
2023/09/13 05:28:33;;;;;;;7.57;2.05;;;17.10;99.90;;;;;;5017684;28;20048;-70
2023/09/13 05:31:03;;;;;;;9.07;2.28;;;17.00;99.90;;;;;;5017471;28;20391;-71
2023/09/13 05:33:29;;;;;;;6.60;1.88;;;16.90;99.90;;;;;;5017503;28;20037;-70
2023/09/13 05:35:54;;;;;;;10.93;2.42;;;16.90;99.90;;;;;;5017461;28;20034;-70
2023/09/13 05:38:21;;;;;;;9.77;1.88;;;16.90;99.90;;;;;;5017320;28;20099;-70
2023/09/13 05:40:46;;;;;;;7.45;1.83;;;16.70;99.90;;;;;;5017421;28;20049;-70
2023/09/13 05:43:12;;;;;;;6.30;1.42;;;16.70;99.90;;;;;;5017507;28;20066;-71
2023/09/13 05:45:39;;;;;;;7.93;1.95;;;16.70;99.90;;;;;;5000998;28;20493;-71
2023/09/13 05:48:05;;;;;;;8.50;1.90;;;16.60;99.90;;;;;;5017169;28;20422;-71
2023/09/13 05:50:30;;;;;;;6.20;2.03;;;16.50;99.90;;;;;;5017083;28;20034;-71
2023/09/13 05:52:56;;;;;;;8.38;1.77;;;16.50;99.90;;;;;;5017078;28;20111;-71
2023/09/13 05:55:22;;;;;;;8.38;1.50;;;16.50;99.90;;;;;;5017137;28;20033;-71
2023/09/13 05:57:49;;;;;;;8.05;1.90;;;16.40;99.90;;;;;;5017111;28;20052;-71
2023/09/13 06:00:15;;;;;;;9.80;1.95;;;16.40;99.90;;;;;;5016982;28;20096;-70
2023/09/13 06:02:41;;;;;;;7.68;1.60;;;16.30;99.90;;;;;;5017228;28;20045;-70
2023/09/13 06:05:09;;;;;;;6.00;1.52;;;16.30;99.90;;;;;;5016652;28;20413;-70
2023/09/13 06:07:35;;;;;;;8.93;1.85;;;16.30;99.90;;;;;;5016821;28;20120;-70
2023/09/13 06:10:01;;;;;;;7.78;1.52;;;16.20;99.90;;;;;;5000643;28;20048;-70
2023/09/13 06:12:26;;;;;;;5.43;1.45;;;16.20;99.90;;;;;;5016955;28;20041;-70
2023/09/13 06:14:55;;;;;;;8.95;1.90;;;16.20;99.90;;;;;;5016764;28;20406;-70
2023/09/13 06:17:21;;;;;;;6.25;1.50;;;16.10;99.90;;;;;;5016722;28;20099;-70
2023/09/13 06:19:48;;;;;;;6.82;1.50;;;16.10;99.90;;;;;;5000229;28;20414;-70
2023/09/13 06:22:14;;;;;;;7.70;2.15;;;16.00;99.90;;;;;;5016564;28;20045;-70
2023/09/13 06:24:39;;;;;;;5.25;1.48;;;16.00;99.90;;;;;;5016570;28;20041;-70
2023/09/13 06:27:05;;;;;;;7.55;1.70;;;16.00;99.90;;;;;;5016598;28;20045;-70
2023/09/13 06:29:30;;;;;;;5.90;1.77;;;15.90;99.90;;;;;;5016452;28;20513;-70
2023/09/13 06:31:56;;;;;;;4.82;1.42;;;15.90;99.90;;;;;;5016515;28;20180;-70
2023/09/13 06:34:22;;;;;;;5.68;1.35;;;15.80;99.90;;;;;;5016358;28;20494;-70
2023/09/13 06:36:50;;;;;;;4.72;1.70;;;15.80;99.90;;;;;;5016363;28;20037;-70
2023/09/13 06:39:18;;;;;;;5.60;1.40;;;15.80;99.90;;;;;;5016285;28;20132;-70
2023/09/13 06:41:44;;;;;;;5.53;1.30;;;15.90;99.90;;;;;;5016129;28;20053;-70
2023/09/13 06:44:09;;;;;;;7.80;1.98;;;15.80;99.90;;;;;;5016203;28;20064;-70
2023/09/13 06:46:36;;;;;;;7.15;2.17;;;15.90;99.90;;;;;;5016220;28;20045;-70
2023/09/13 06:49:03;;;;;;;9.85;2.45;;;15.90;99.90;;;;;;5016120;28;20391;-70
2023/09/13 06:51:29;;;;;;;9.55;2.80;;;15.80;99.90;;;;;;5016028;28;20056;-70
2023/09/13 06:53:54;;;;;;;10.10;3.05;;;15.80;99.90;;;;;;5016014;28;20037;-69
2023/09/13 06:56:20;;;;;;;10.75;2.75;;;15.80;99.90;;;;;;5016015;28;20048;-70
2023/09/13 06:58:45;;;;;;;7.85;2.70;;;15.90;99.90;;;;;;5034208;28;20088;-70
2023/09/13 07:01:12;;;;;;;10.75;2.70;;;15.80;99.90;;;;;;5015854;28;20491;-71
2023/09/13 07:03:38;;;;;;;9.60;3.03;;;15.80;99.90;;;;;;5016183;28;20041;-71
2023/09/13 07:06:04;;;;;;;8.25;2.45;;;15.80;99.90;;;;;;5015839;28;20117;-71
2023/09/13 07:08:30;;;;;;;8.93;2.50;;;15.90;99.90;;;;;;5015736;28;20041;-71
2023/09/13 07:10:56;;;;;;;10.10;2.80;;;15.90;99.90;;;;;;5015777;28;20037;-71
2023/09/13 07:13:21;;;;;;;11.57;3.15;;;15.80;99.90;;;;;;5015681;28;20493;-71
2023/09/13 07:15:48;;;;;;;12.35;2.85;;;15.80;99.90;;;;;;5015710;28;20043;-71
2023/09/13 07:18:14;;;;;;;9.00;2.38;;;15.80;99.90;;;;;;5014906;28;20037;-71
2023/09/13 07:20:40;;;;;;;11.23;2.70;;;15.80;99.90;;;;;;5015620;28;20049;-71
2023/09/13 07:23:05;;;;;;;13.43;2.70;;;15.90;99.90;;;;;;5015578;28;20160;-71
2023/09/13 07:25:31;;;;;;;13.35;3.30;;;15.90;99.90;;;;;;5015864;28;20049;-71
2023/09/13 07:27:57;;;;;;;14.93;3.58;;;15.90;99.90;;;;;;5015575;28;20406;-71
2023/09/13 07:30:23;;;;;;;12.40;2.92;;;15.90;99.90;;;;;;5015762;28;20046;-71
2023/09/13 07:32:49;;;;;;;11.80;3.03;;;15.90;99.90;;;;;;5015313;28;20509;-71
2023/09/13 07:35:15;;;;;;;11.52;2.72;;;16.00;99.90;;;;;;5015476;28;20472;-71
2023/09/13 07:37:41;;;;;;;13.07;3.25;;;16.00;99.90;;;;;;5015489;28;20120;-71
2023/09/13 07:40:07;;;;;;;11.40;3.10;;;16.10;99.90;;;;;;5015667;28;20046;-71
2023/09/13 07:42:32;;;;;;;10.57;2.67;;;16.10;99.90;;;;;;5015606;28;20049;-71
2023/09/13 07:44:59;;;;;;;12.60;2.95;;;16.10;99.90;;;;;;5015674;28;20430;-71
2023/09/13 07:47:27;;;;;;;13.98;3.20;;;16.20;99.90;;;;;;4999043;28;20037;-71
2023/09/13 07:49:52;;;;;;;11.80;2.83;;;16.20;99.90;;;;;;5015335;28;20073;-71
2023/09/13 07:52:18;;;;;;;15.75;3.22;;;16.20;99.90;;;;;;5015253;28;20080;-71
2023/09/13 07:54:43;;;;;;;11.40;2.95;;;16.20;99.90;;;;;;5015296;28;20033;-71
2023/09/13 07:57:09;;;;;;;12.95;2.92;;;16.20;99.90;;;;;;5015268;28;20045;-71
2023/09/13 07:59:34;;;;;;;14.75;3.10;;;16.30;99.90;;;;;;5015478;28;20041;-71
2023/09/13 08:02:00;;;;;;;11.35;3.10;;;16.30;99.90;;;;;;5015437;28;20055;-71
2023/09/13 08:04:25;;;;;;;12.00;3.00;;;16.30;99.90;;;;;;5015229;28;20464;-71
2023/09/13 08:06:51;;;;;;;9.30;2.78;;;16.30;99.90;;;;;;5015086;28;20046;-71
2023/09/13 08:09:17;;;;;;;14.45;3.40;;;16.30;99.90;;;;;;5015115;28;20073;-71
2023/09/13 08:11:44;;;;;;;16.92;3.42;;;16.30;99.90;;;;;;5015052;28;20045;-71
2023/09/13 08:14:10;;;;;;;12.05;3.35;;;16.40;99.90;;;;;;5015062;28;20033;-71
2023/09/13 08:16:36;;;;;;;13.13;3.15;;;16.50;99.90;;;;;;5015061;28;20045;-72
2023/09/13 08:19:02;;;;;;;13.70;3.28;;;16.40;99.90;;;;;;5015263;28;20053;-71
2023/09/13 08:21:27;;;;;;;10.10;3.05;;;16.40;99.90;;;;;;5014932;28;20037;-71
2023/09/13 08:23:53;;;;;;;14.50;3.17;;;16.40;99.90;;;;;;5015266;28;20052;-71
2023/09/13 08:26:18;;;;;;;8.80;2.42;;;16.40;99.90;;;;;;5015739;28;20037;-71
2023/09/13 08:28:45;;;;;;;8.43;2.63;;;16.50;99.90;;;;;;5016635;28;20485;-71
2023/09/13 08:31:10;;;;;;;9.73;2.63;;;16.50;99.90;;;;;;5036552;28;20029;-71
2023/09/13 08:33:36;;;;;;;11.93;2.60;;;16.50;99.90;;;;;;5018797;28;20421;-71
2023/09/13 08:36:02;;;;;;;10.00;2.25;;;16.60;99.90;;;;;;5018926;28;20052;-71
2023/09/13 08:38:28;;;;;;;11.32;3.03;;;16.60;99.90;;;;;;5018647;28;20047;-71
2023/09/13 08:40:54;;;;;;;9.48;2.72;;;16.60;99.90;;;;;;5018583;28;20054;-71
2023/09/13 08:43:21;;;;;;;13.02;2.20;;;16.70;99.90;;;;;;5018931;28;20033;-70
2023/09/13 08:45:49;;;;;;;9.75;2.60;;;16.60;99.90;;;;;;5019138;28;20492;-71
2023/09/13 08:48:16;;;;;;;11.13;2.80;;;16.60;99.90;;;;;;5018278;28;20048;-71
2023/09/13 08:50:42;;;;;;;7.32;2.30;;;16.70;99.90;;;;;;5018642;28;20087;-71
2023/09/13 08:53:09;;;;;;;9.70;2.60;;;16.80;99.90;;;;;;5018230;28;20053;-71
2023/09/13 08:55:35;;;;;;;10.18;2.65;;;16.90;99.90;;;;;;5001884;28;20077;-71
2023/09/13 08:58:01;;;;;;;7.97;2.28;;;16.90;99.90;;;;;;5018487;28;20041;-71
2023/09/13 09:00:33;;;;;;;9.88;2.78;;;17.00;99.90;;;;;;5018233;28;20045;-71
2023/09/13 09:03:02;;;;;;;6.90;1.95;;;17.10;99.90;;;;;;5002028;28;20050;-71
2023/09/13 09:05:30;;;;;;;9.77;2.50;;;17.20;99.90;;;;;;5018152;28;20073;-71
2023/09/13 09:07:57;;;;;;;10.80;2.67;;;17.30;99.90;;;;;;5017975;28;20041;-71
2023/09/13 09:10:23;;;;;;;10.00;2.58;;;17.40;99.90;;;;;;5017986;28;20037;-71
2023/09/13 09:12:52;;;;;;;10.88;2.15;;;17.40;99.90;;;;;;5017778;28;20041;-71
2023/09/13 09:15:19;;;;;;;9.02;2.20;;;17.30;99.90;;;;;;5017870;28;20037;-71
2023/09/13 09:17:48;;;;;;;7.90;2.13;;;17.40;99.90;;;;;;5035568;28;20037;-71
2023/09/13 09:20:14;;;;;;;6.72;1.88;;;17.40;99.90;;;;;;5017891;28;20596;-71
2023/09/13 09:22:41;;;;;;;10.48;2.30;;;17.30;99.90;;;;;;5017796;28;20124;-71
2023/09/13 09:25:11;;;;;;;10.57;2.38;;;17.30;99.90;;;;;;5017679;28;20053;-71
2023/09/13 09:27:39;;;;;;;9.63;2.00;;;17.30;99.90;;;;;;5017855;28;20128;-71
2023/09/13 09:30:06;;;;;;;9.63;2.30;;;17.30;99.90;;;;;;5017695;28;20037;-71
2023/09/13 09:32:35;;;;;;;9.68;2.50;;;17.30;99.90;;;;;;5017625;28;20379;-71
2023/09/13 09:35:05;;;;;;;7.90;2.60;;;17.20;99.90;;;;;;5017767;28;20034;-71
2023/09/13 09:37:32;;;;;;;7.85;2.30;;;17.20;99.90;;;;;;5017431;28;20052;-71
2023/09/13 09:39:58;;;;;;;9.73;2.15;;;17.20;99.90;;;;;;5016851;28;20473;-71
2023/09/13 09:42:24;;;;;;;6.05;2.08;;;17.20;99.90;;;;;;5001034;28;20086;-71
2023/09/13 09:44:55;;;;;;;10.27;2.47;;;17.20;99.90;;;;;;5017294;28;20076;-71
2023/09/13 09:47:20;;;;;;;6.28;1.85;;;17.30;99.90;;;;;;5017323;28;20053;-71
2023/09/13 09:49:47;;;;;;;9.35;2.45;;;17.30;99.90;;;;;;5017596;28;20197;-71
2023/09/13 09:52:16;;;;;;;6.85;1.98;;;17.30;99.90;;;;;;5000753;28;20414;-71
2023/09/13 09:54:50;;;;;;;12.23;2.40;;;17.30;99.90;;;;;;5001127;28;20072;-71
2023/09/13 09:57:23;;;;;;;9.68;2.13;;;17.40;99.90;;;;;;5017337;28;20041;-71
2023/09/13 09:59:49;;;;;;;10.82;2.20;;;17.70;99.90;;;;;;5017277;28;20045;-71
2023/09/13 10:02:15;;;;;;;9.82;2.35;;;18.30;99.90;;;;;;5017196;28;20037;-71
2023/09/13 10:04:45;;;;;;;7.00;2.30;;;18.70;99.90;;;;;;5016916;28;20518;-71
2023/09/13 10:07:11;;;;;;;9.63;2.45;;;18.80;99.90;;;;;;5017021;28;20041;-71
2023/09/13 10:09:41;;;;;;;5.30;1.63;;;18.70;99.90;;;;;;5016897;28;20505;-71
2023/09/13 10:12:09;;;;;;;5.95;1.73;;;18.50;99.90;;;;;;5016973;28;20034;-71
2023/09/13 10:14:35;;;;;;;17.63;2.63;;;18.20;99.90;;;;;;5016831;28;20072;-71
2023/09/13 10:17:03;;;;;;;6.78;2.03;;;18.00;99.90;;;;;;5017050;28;20052;-71
2023/09/13 10:19:30;;;;;;;10.48;2.40;;;17.80;99.90;;;;;;5016700;28;20222;-71
2023/09/13 10:21:56;;;;;;;16.45;2.50;;;17.70;99.90;;;;;;5016632;28;20037;-71
2023/09/13 10:24:24;;;;;;;11.02;2.30;;;17.60;99.90;;;;;;5016625;28;20041;-71
2023/09/13 10:26:52;;;;;;;10.85;2.85;;;17.50;99.90;;;;;;5016468;28;20049;-71
2023/09/13 10:29:27;;;;;;;9.63;2.65;;;17.50;99.90;;;;;;5016513;28;20068;-71
2023/09/13 10:31:58;;;;;;;10.80;3.05;;;17.50;99.90;;;;;;5016435;28;20049;-71
2023/09/13 10:34:27;;;;;;;10.40;2.67;;;17.50;99.90;;;;;;5016599;28;20146;-71
2023/09/13 10:37:00;;;;;;;8.80;2.40;;;17.40;99.90;;;;;;5016357;28;20048;-71
2023/09/13 10:39:29;;;;;;;8.30;2.47;;;17.30;99.90;;;;;;5016323;28;20514;-71
2023/09/13 10:42:10;;;;;;;7.20;2.50;;;17.20;99.90;;;;;;5016499;28;20179;-71
2023/09/13 10:44:36;;;;;;;10.20;2.45;;;17.20;99.90;;;;;;5016340;28;20046;-72
2023/09/13 10:47:04;;;;;;;10.85;2.70;;;17.20;99.90;;;;;;5016167;28;20529;-72
2023/09/13 10:49:29;;;;;;;10.73;2.35;;;17.40;99.90;;;;;;5016448;28;20038;-71
2023/09/13 10:51:58;;;;;;;8.90;2.53;;;17.60;99.90;;;;;;5016014;28;20041;-71
2023/09/13 10:54:25;;;;;;;6.80;2.17;;;18.10;99.90;;;;;;5016109;28;20037;-71
2023/09/13 10:56:51;;;;;;;9.27;3.05;;;18.60;99.90;;;;;;5016251;28;20096;-71
2023/09/13 10:59:22;;;;;;;8.68;2.75;;;19.20;99.90;;;;;;4999739;28;20094;-72
2023/09/13 11:01:47;;;;;;;7.10;2.58;;;19.80;99.90;;;;;;5015919;28;20443;-71
2023/09/13 11:04:19;;;;;;;6.32;2.35;;;20.30;99.90;;;;;;5015912;28;20045;-72
2023/09/13 11:06:46;;;;;;;6.63;2.00;;;20.90;99.90;;;;;;5015818;28;20049;-72
2023/09/13 11:09:16;;;;;;;8.45;2.80;;;21.20;99.90;;;;;;5016132;28;20042;-72
2023/09/13 11:11:51;;;;;;;7.28;2.22;;;21.40;99.90;;;;;;5015947;28;20046;-72
2023/09/13 11:14:23;;;;;;;7.05;2.15;;;21.60;99.90;;;;;;5015722;28;20071;-72
2023/09/13 11:16:49;;;;;;;5.03;2.30;;;21.90;99.90;;;;;;5016019;28;20045;-72
2023/09/13 11:19:18;;;;;;;8.98;2.25;;;21.90;99.90;;;;;;5015719;28;20052;-72
2023/09/13 11:21:50;;;;;;;7.30;2.60;;;22.00;98.30;;;;;;5015538;28;20045;-72
2023/09/13 11:24:38;;;;;;;5.78;2.53;;;22.10;97.70;;;;;;5015705;28;20046;-72
2023/09/13 11:27:11;;;;;;;5.10;2.45;;;22.10;95.80;;;;;;5015723;28;20052;-72
2023/09/13 11:29:52;;;;;;;6.20;2.13;;;22.20;96.20;;;;;;5015565;28;20048;-75
2023/09/13 11:32:26;;;;;;;7.47;2.58;;;22.30;95.60;;;;;;5015353;28;20045;-75
2023/09/13 11:34:56;;;;;;;8.70;2.65;;;22.30;96.30;;;;;;4999131;28;20041;-76
2023/09/13 11:37:24;;;;;;;4.80;2.60;;;22.30;95.80;;;;;;5015460;28;20049;-76
2023/09/13 11:39:55;;;;;;;8.07;2.63;;;22.20;95.60;;;;;;5015378;28;20067;-76
2023/09/13 11:42:28;;;;;;;5.47;2.22;;;22.10;95.20;;;;;;5015620;28;20536;-76
2023/09/13 11:44:58;;;;;;;6.55;2.30;;;21.90;93.90;;;;;;4998942;28;20558;-76
2023/09/13 11:47:24;;;;;;;7.65;2.30;;;21.50;94.80;;;;;;5015366;28;20046;-76
2023/09/13 11:49:54;;;;;;;8.02;2.40;;;21.80;95.60;;;;;;5015355;28;20037;-76
2023/09/13 11:52:20;;;;;;;5.93;1.73;;;21.90;94.90;;;;;;5015277;28;20044;-76
2023/09/13 11:54:58;;;;;;;8.65;2.53;;;21.80;94.50;;;;;;4998916;28;20037;-76
2023/09/13 11:57:43;;;;;;;4.25;2.08;;;21.80;95.00;;;;;;4998839;28;20091;-76
2023/09/13 12:00:14;;;;;;;5.35;2.25;;;22.00;95.60;;;;;;5015201;28;20037;-76
2023/09/13 12:02:43;;;;;;;3.95;1.90;;;22.40;94.30;;;;;;4999782;28;20068;-76
2023/09/13 12:05:10;;;;;;;4.97;1.70;;;22.80;93.60;;;;;;5019500;28;20371;-76
2023/09/13 12:07:35;;;;;;;6.75;2.25;;;23.00;92.50;;;;;;5019108;28;20046;-76
2023/09/13 12:10:01;;;;;;;6.93;2.13;;;23.20;91.40;;;;;;5003174;28;20030;-74
2023/09/13 12:12:27;;;;;;;4.78;1.70;;;23.20;91.20;;;;;;5002997;28;20091;-74
2023/09/13 12:14:52;;;;;;;4.88;1.40;;;23.20;90.90;;;;;;5002711;28;20433;-74
2023/09/13 12:17:19;;;;;;;5.28;1.55;;;23.00;90.10;;;;;;5018965;28;20042;-74
2023/09/13 12:19:46;;;;;;;5.00;1.60;;;22.90;90.30;;;;;;5018979;28;20409;-74
2023/09/13 12:22:16;;;;;;;4.80;1.35;;;23.10;90.80;;;;;;5018791;28;20080;-74
2023/09/13 12:24:52;;;;;;;3.78;1.25;;;23.30;90.10;;;;;;5018805;28;20037;-74
2023/09/13 12:27:17;;;;;;;5.95;1.58;;;23.60;88.40;;;;;;5018810;28;20422;-74
2023/09/13 12:29:44;;;;;;;6.10;1.40;;;23.80;88.60;;;;;;5018986;28;20036;-73
2023/09/13 12:32:10;;;;;;;4.85;1.48;;;24.00;88.50;;;;;;5018489;28;20041;-72
2023/09/13 12:34:36;;;;;;;4.18;1.55;;;24.10;86.60;;;;;;5018837;28;20044;-73
2023/09/13 12:37:01;;;;;;;7.43;1.60;;;23.90;86.00;;;;;;5018655;28;20116;-73
2023/09/13 12:39:27;;;;;;;6.13;1.40;;;23.60;85.50;;;;;;5002194;28;20180;-73
2023/09/13 12:41:53;;;;;;;5.03;1.30;;;23.30;87.00;;;;;;5018710;28;20041;-73